createdAt,value
2023-05-09T00:01:43.933Z,11.50
2023-05-09T00:04:11.472Z,11.50
2023-05-09T00:06:38.645Z,11.60
2023-05-09T00:09:05.965Z,11.60
2023-05-09T00:11:33.116Z,11.60
2023-05-09T00:14:00.239Z,11.70
2023-05-09T00:16:27.222Z,11.70
2023-05-09T00:18:54.449Z,11.60
2023-05-09T00:21:21.492Z,11.60
2023-05-09T00:23:48.592Z,11.50
2023-05-09T00:26:16.688Z,11.60
2023-05-09T00:28:43.825Z,11.60
2023-05-09T00:31:10.859Z,11.70
2023-05-09T00:33:37.839Z,11.70
2023-05-09T00:36:05.272Z,11.70
2023-05-09T00:38:32.343Z,11.60
2023-05-09T00:40:59.398Z,11.60
2023-05-09T00:43:26.485Z,11.60
2023-05-09T00:45:53.656Z,11.60
2023-05-09T00:48:21.603Z,11.60
2023-05-09T00:50:53.007Z,11.60
2023-05-09T00:53:20.983Z,11.50
2023-05-09T00:55:48.294Z,11.50
2023-05-09T00:58:15.750Z,11.50
2023-05-09T01:00:43.556Z,11.50
2023-05-09T01:03:10.838Z,11.50
2023-05-09T01:05:52.018Z,11.40
2023-05-09T01:08:28.129Z,11.40
2023-05-09T01:11:26.839Z,11.40
2023-05-09T01:14:25.037Z,11.30
2023-05-09T01:17:13.785Z,11.30
2023-05-09T01:19:56.864Z,11.20
2023-05-09T01:22:30.477Z,11.30
2023-05-09T01:25:10.398Z,11.20
2023-05-09T01:27:57.740Z,11.20
2023-05-09T01:30:26.833Z,11.20
2023-05-09T01:32:59.651Z,11.20
2023-05-09T01:35:29.446Z,11.10
2023-05-09T01:37:57.950Z,11.10
2023-05-09T01:40:29.666Z,11.10
2023-05-09T01:43:01.406Z,11.00
2023-05-09T01:45:29.522Z,11.00
2023-05-09T01:47:57.962Z,11.00
2023-05-09T01:50:27.198Z,10.90
2023-05-09T01:52:57.231Z,10.90
2023-05-09T01:55:27.390Z,10.90
2023-05-09T01:57:56.032Z,10.80
2023-05-09T02:00:24.856Z,10.80
2023-05-09T02:02:53.626Z,10.70
2023-05-09T02:05:26.325Z,10.70
2023-05-09T02:07:54.988Z,10.60
2023-05-09T02:10:25.647Z,10.60
2023-05-09T02:12:53.865Z,10.60
2023-05-09T02:15:21.953Z,10.60
2023-05-09T02:17:49.026Z,10.50
2023-05-09T02:20:16.176Z,10.50
2023-05-09T02:22:44.580Z,10.60
2023-05-09T02:25:15.580Z,10.60
2023-05-09T02:27:46.191Z,10.50
2023-05-09T02:30:20.817Z,10.60
2023-05-09T02:32:50.503Z,10.60
2023-05-09T02:35:18.446Z,10.50
2023-05-09T02:37:46.336Z,10.50
2023-05-09T02:40:14.145Z,10.50
2023-05-09T02:42:41.404Z,10.50
2023-05-09T02:45:10.680Z,10.60
2023-05-09T02:47:38.862Z,10.60
2023-05-09T02:50:06.852Z,10.60
2023-05-09T02:52:33.974Z,10.60
2023-05-09T02:55:01.065Z,10.70
2023-05-09T02:57:28.152Z,10.70
2023-05-09T02:59:55.164Z,10.70
2023-05-09T03:02:23.889Z,10.70
2023-05-09T03:04:51.140Z,10.70
2023-05-09T03:07:18.303Z,10.70
2023-05-09T03:09:45.328Z,10.70
2023-05-09T03:12:12.306Z,10.70
2023-05-09T03:14:39.531Z,10.70
2023-05-09T03:17:06.619Z,10.80
2023-05-09T03:19:33.802Z,10.70
2023-05-09T03:22:00.787Z,10.70
2023-05-09T03:24:31.051Z,10.70
2023-05-09T03:26:58.069Z,10.70
2023-05-09T03:29:26.067Z,10.70
2023-05-09T03:31:53.165Z,10.70
2023-05-09T03:34:20.365Z,10.70
2023-05-09T03:36:47.479Z,10.70
2023-05-09T03:39:14.489Z,10.70
2023-05-09T03:41:41.994Z,10.70
2023-05-09T03:44:08.921Z,10.70
2023-05-09T03:46:36.001Z,10.70
2023-05-09T03:49:04.476Z,10.70
2023-05-09T03:51:32.454Z,10.70
2023-05-09T03:54:00.225Z,10.80
2023-05-09T03:56:27.235Z,10.70
2023-05-09T03:58:54.399Z,10.80
2023-05-09T04:01:21.447Z,10.80
2023-05-09T04:03:48.654Z,10.80
2023-05-09T04:06:16.035Z,10.80
2023-05-09T04:08:43.160Z,10.80
2023-05-09T04:11:10.237Z,10.90
2023-05-09T04:13:37.324Z,10.80
2023-05-09T04:16:04.652Z,10.90
2023-05-09T04:18:31.790Z,10.90
2023-05-09T04:20:58.757Z,10.90
2023-05-09T04:23:25.894Z,11.00
2023-05-09T04:25:54.486Z,11.00
2023-05-09T04:28:21.687Z,11.00
2023-05-09T04:30:49.094Z,11.00
2023-05-09T04:33:17.200Z,11.00
2023-05-09T04:35:44.224Z,11.10
2023-05-09T04:38:11.680Z,11.10
2023-05-09T04:40:38.894Z,11.10
2023-05-09T04:43:06.342Z,11.20
2023-05-09T04:45:33.369Z,11.20
2023-05-09T04:48:00.920Z,11.20
2023-05-09T04:50:27.966Z,11.30
2023-05-09T04:52:55.142Z,11.30
2023-05-09T04:55:22.277Z,11.30
2023-05-09T04:57:49.284Z,11.30
2023-05-09T05:00:17.808Z,11.30
2023-05-09T05:02:44.885Z,11.40
2023-05-09T05:05:12.726Z,11.50
2023-05-09T05:07:40.004Z,11.60
2023-05-09T05:10:07.576Z,11.70
2023-05-09T05:12:34.678Z,11.80
2023-05-09T05:15:01.744Z,11.80
2023-05-09T05:17:29.708Z,11.90
2023-05-09T05:19:56.764Z,11.90
2023-05-09T05:22:24.425Z,12.00
2023-05-09T05:24:51.490Z,12.00
2023-05-09T05:27:18.569Z,12.10
2023-05-09T05:29:45.733Z,12.20
2023-05-09T05:32:12.792Z,12.20
2023-05-09T05:34:39.940Z,12.30
2023-05-09T05:37:06.990Z,12.40
2023-05-09T05:39:34.042Z,12.60
2023-05-09T05:42:01.072Z,12.90
2023-05-09T05:44:28.081Z,13.10
2023-05-09T05:46:55.089Z,13.30
2023-05-09T05:49:22.292Z,13.60
2023-05-09T05:51:49.297Z,13.90
2023-05-09T05:54:16.341Z,14.50
2023-05-09T05:56:43.400Z,15.10
2023-05-09T05:59:11.851Z,16.00
2023-05-09T06:01:40.163Z,17.30
2023-05-09T06:04:07.516Z,17.50
2023-05-09T06:06:34.847Z,17.40
2023-05-09T06:09:01.864Z,17.50
2023-05-09T06:11:28.891Z,18.50
2023-05-09T06:13:55.965Z,19.10
2023-05-09T06:16:23.110Z,20.10
2023-05-09T06:18:50.654Z,22.50
2023-05-09T06:21:17.946Z,24.10
2023-05-09T06:23:57.763Z,25.10
2023-05-09T06:26:29.131Z,24.80
2023-05-09T06:28:56.543Z,24.60
2023-05-09T06:31:25.376Z,23.20
2023-05-09T06:33:53.075Z,23.70
2023-05-09T06:36:20.476Z,25.10
2023-05-09T06:38:47.676Z,26.20
2023-05-09T06:41:14.699Z,27.20
2023-05-09T06:43:41.701Z,28.40
2023-05-09T06:46:08.791Z,29.10
2023-05-09T06:48:35.900Z,29.70
2023-05-09T06:51:03.174Z,29.40
2023-05-09T06:53:30.265Z,29.00
2023-05-09T06:55:57.412Z,28.40
2023-05-09T06:58:24.615Z,27.90
2023-05-09T07:00:51.743Z,28.00
2023-05-09T07:03:18.938Z,28.30
2023-05-09T07:05:46.052Z,28.50
2023-05-09T07:08:12.999Z,28.50
2023-05-09T07:10:40.376Z,28.00
2023-05-09T07:13:07.451Z,27.50
2023-05-09T07:15:41.801Z,27.80
2023-05-09T07:18:09.577Z,27.50
2023-05-09T07:20:36.783Z,27.20
2023-05-09T07:23:04.669Z,27.30
2023-05-09T07:25:31.993Z,27.70
2023-05-09T07:27:59.089Z,27.70
2023-05-09T07:30:26.284Z,27.50
2023-05-09T07:32:53.650Z,27.10
2023-05-09T07:35:21.174Z,26.60
2023-05-09T07:37:49.345Z,26.00
2023-05-09T07:40:16.695Z,25.20
2023-05-09T07:42:49.903Z,24.00
2023-05-09T07:45:17.942Z,23.50
2023-05-09T07:47:46.009Z,23.30
2023-05-09T07:50:13.466Z,23.30
2023-05-09T07:52:40.469Z,23.20
2023-05-09T07:55:07.746Z,23.00
2023-05-09T07:57:36.947Z,22.50
2023-05-09T08:00:06.445Z,22.30
2023-05-09T08:02:33.629Z,22.10
2023-05-09T08:05:00.907Z,22.10
2023-05-09T08:07:32.036Z,22.00
2023-05-09T08:09:59.116Z,22.00
2023-05-09T08:12:27.196Z,22.00
2023-05-09T08:14:54.208Z,21.80
2023-05-09T08:17:21.259Z,21.80
2023-05-09T08:19:48.272Z,21.60
2023-05-09T08:22:19.414Z,21.40
2023-05-09T08:24:47.470Z,21.80
2023-05-09T08:27:15.692Z,22.10
2023-05-09T08:29:43.770Z,21.80
2023-05-09T08:32:11.246Z,22.00
2023-05-09T08:34:38.412Z,22.30
2023-05-09T08:37:05.497Z,22.40
2023-05-09T08:39:35.017Z,22.40
2023-05-09T08:42:02.715Z,21.90
2023-05-09T08:44:31.706Z,21.80
2023-05-09T08:47:03.537Z,21.70
2023-05-09T08:49:31.145Z,21.90
2023-05-09T08:51:58.954Z,22.10
2023-05-09T08:54:26.255Z,22.40
2023-05-09T08:56:53.719Z,22.50
2023-05-09T08:59:21.133Z,22.50
2023-05-09T09:01:48.796Z,22.60
2023-05-09T09:04:16.015Z,22.10
2023-05-09T09:06:43.840Z,21.90
2023-05-09T09:09:13.959Z,22.00
2023-05-09T09:11:42.880Z,22.50
2023-05-09T09:14:20.343Z,22.50
2023-05-09T09:16:49.125Z,22.40
2023-05-09T09:19:18.114Z,21.90
2023-05-09T09:21:51.409Z,22.00
2023-05-09T09:24:23.092Z,22.10
2023-05-09T09:26:51.946Z,21.90
2023-05-09T09:29:20.803Z,22.00
2023-05-09T09:31:52.460Z,22.00
2023-05-09T09:34:23.729Z,22.30
2023-05-09T09:36:51.233Z,21.80
2023-05-09T09:39:18.392Z,21.80
2023-05-09T09:41:45.519Z,21.70
2023-05-09T09:44:13.725Z,21.90
2023-05-09T09:46:50.664Z,22.10
2023-05-09T09:49:23.472Z,22.20
2023-05-09T09:51:55.353Z,22.30
2023-05-09T09:54:23.304Z,22.20
2023-05-09T09:56:55.071Z,22.10
2023-05-09T09:59:25.195Z,22.10
2023-05-09T10:02:07.985Z,22.10
2023-05-09T10:04:37.220Z,22.20
2023-05-09T10:07:07.457Z,22.40
2023-05-09T10:09:38.130Z,22.40
2023-05-09T10:12:07.255Z,22.10
2023-05-09T10:14:36.497Z,21.60
2023-05-09T10:17:05.627Z,21.90
2023-05-09T10:19:33.694Z,22.40
2023-05-09T10:22:08.300Z,22.80
2023-05-09T10:24:41.288Z,22.70
2023-05-09T10:27:13.017Z,22.60
2023-05-09T10:29:45.950Z,22.80
2023-05-09T10:32:18.396Z,22.70
2023-05-09T10:34:51.499Z,22.90
2023-05-09T10:37:18.704Z,22.80
2023-05-09T10:39:47.128Z,22.70
2023-05-09T10:42:14.543Z,22.70
2023-05-09T10:44:42.221Z,22.80
2023-05-09T10:47:09.340Z,22.80
2023-05-09T10:49:37.215Z,22.60
2023-05-09T10:52:04.649Z,22.10
2023-05-09T10:54:33.762Z,22.00
2023-05-09T10:57:01.404Z,22.30
2023-05-09T10:59:37.961Z,22.80
2023-05-09T11:02:05.772Z,23.00
2023-05-09T11:04:33.325Z,23.20
2023-05-09T11:07:01.229Z,23.20
2023-05-09T11:09:33.120Z,23.00
2023-05-09T11:12:10.727Z,22.80
2023-05-09T11:14:56.214Z,23.20
2023-05-09T11:17:23.464Z,23.40
2023-05-09T11:19:50.526Z,23.10
2023-05-09T11:22:21.214Z,23.10
2023-05-09T11:24:50.248Z,23.30
2023-05-09T11:27:24.399Z,23.40
2023-05-09T11:29:55.318Z,23.00
2023-05-09T11:32:27.864Z,22.70
2023-05-09T11:35:15.354Z,22.30
2023-05-09T11:38:04.202Z,22.70
2023-05-09T11:40:32.639Z,22.80
2023-05-09T11:43:01.473Z,22.90
2023-05-09T11:45:33.467Z,22.90
2023-05-09T11:48:01.433Z,23.10
2023-05-09T11:50:29.051Z,23.30
2023-05-09T11:52:56.468Z,23.10
2023-05-09T11:55:25.457Z,23.00
2023-05-09T11:57:54.663Z,23.30
2023-05-09T12:00:26.519Z,23.70
2023-05-09T12:02:54.287Z,23.80
2023-05-09T12:05:23.228Z,24.10
2023-05-09T12:07:51.070Z,24.20
2023-05-09T12:10:23.042Z,23.70
2023-05-09T12:12:51.835Z,23.50
2023-05-09T12:15:20.425Z,23.60
2023-05-09T12:17:49.759Z,23.50
2023-05-09T12:20:19.103Z,23.70
2023-05-09T12:22:53.352Z,23.70
2023-05-09T12:25:20.650Z,23.70
2023-05-09T12:27:47.742Z,23.70
2023-05-09T12:30:16.252Z,23.80
2023-05-09T12:32:43.931Z,23.90
2023-05-09T12:35:12.033Z,23.90
2023-05-09T12:37:39.432Z,23.90
2023-05-09T12:40:15.825Z,23.80
2023-05-09T12:42:46.716Z,23.90
2023-05-09T12:45:14.673Z,24.00
2023-05-09T12:47:42.276Z,24.00
2023-05-09T12:50:12.405Z,24.10
2023-05-09T12:52:54.708Z,24.00
2023-05-09T12:55:28.963Z,24.00
2023-05-09T12:58:00.938Z,23.70
2023-05-09T13:00:28.360Z,23.70
2023-05-09T13:02:55.670Z,23.60
2023-05-09T13:05:24.471Z,23.60
2023-05-09T13:07:56.579Z,23.50
2023-05-09T13:10:30.423Z,23.60
2023-05-09T13:12:57.502Z,23.90
2023-05-09T13:15:26.934Z,23.90
2023-05-09T13:17:54.469Z,24.00
2023-05-09T13:20:21.572Z,24.00
2023-05-09T13:22:48.809Z,23.90
2023-05-09T13:25:17.068Z,23.80
2023-05-09T13:27:44.103Z,23.90
2023-05-09T13:30:11.730Z,23.70
2023-05-09T13:32:38.739Z,23.60
2023-05-09T13:35:08.077Z,23.50
2023-05-09T13:37:35.839Z,23.50
2023-05-09T13:40:04.580Z,23.60
2023-05-09T13:42:32.072Z,23.70
2023-05-09T13:44:59.174Z,23.70
2023-05-09T13:47:26.570Z,23.50
2023-05-09T13:49:53.932Z,23.50
2023-05-09T13:52:23.362Z,23.70
2023-05-09T13:54:50.628Z,23.50
2023-05-09T13:57:17.751Z,23.40
2023-05-09T13:59:44.818Z,23.10
2023-05-09T14:02:11.867Z,23.00
2023-05-09T14:04:39.481Z,23.10
2023-05-09T14:07:06.792Z,23.40
2023-05-09T14:09:40.163Z,23.40
2023-05-09T14:12:08.094Z,23.30
2023-05-09T14:14:35.186Z,23.30
2023-05-09T14:17:02.269Z,23.30
2023-05-09T14:19:30.269Z,23.20
2023-05-09T14:21:57.492Z,23.30
2023-05-09T14:24:24.478Z,23.30
2023-05-09T14:26:51.982Z,23.10
2023-05-09T14:29:18.934Z,22.80
2023-05-09T14:31:46.129Z,22.70
2023-05-09T14:34:13.233Z,22.50
2023-05-09T14:36:40.248Z,22.70
2023-05-09T14:39:07.648Z,22.90
2023-05-09T14:41:34.825Z,23.10
2023-05-09T14:44:01.778Z,23.10
2023-05-09T14:46:28.955Z,23.20
2023-05-09T14:48:57.759Z,22.90
2023-05-09T14:51:24.762Z,23.00
2023-05-09T14:53:53.515Z,23.00
2023-05-09T14:56:20.520Z,23.00
2023-05-09T14:58:47.640Z,23.00
2023-05-09T15:01:16.058Z,23.00
2023-05-09T15:03:43.215Z,23.10
2023-05-09T15:06:10.248Z,22.90
2023-05-09T15:08:37.423Z,22.80
2023-05-09T15:11:04.596Z,22.80
2023-05-09T15:13:32.049Z,22.70
2023-05-09T15:15:59.493Z,22.60
2023-05-09T15:18:28.837Z,22.50
2023-05-09T15:20:56.259Z,22.60
2023-05-09T15:23:23.770Z,22.70
2023-05-09T15:25:50.748Z,22.60
2023-05-09T15:28:17.930Z,22.60
2023-05-09T15:30:45.507Z,22.60
2023-05-09T15:33:13.448Z,22.60
2023-05-09T15:35:40.502Z,22.60
2023-05-09T15:38:08.210Z,22.60
2023-05-09T15:40:35.217Z,22.50
2023-05-09T15:43:07.376Z,22.40
2023-05-09T15:45:37.142Z,22.20
2023-05-09T15:48:04.508Z,22.20
2023-05-09T15:50:31.829Z,22.20
2023-05-09T15:52:58.857Z,22.30
2023-05-09T15:55:27.978Z,22.10
2023-05-09T15:57:55.731Z,22.00
2023-05-09T16:00:23.032Z,21.80
2023-05-09T16:02:50.663Z,21.70
2023-05-09T16:05:18.214Z,21.50
2023-05-09T16:07:47.167Z,21.30
2023-05-09T16:10:14.646Z,21.20
2023-05-09T16:12:42.023Z,21.20
2023-05-09T16:15:10.379Z,21.20
2023-05-09T16:17:37.401Z,21.10
2023-05-09T16:20:04.953Z,21.10
2023-05-09T16:22:31.915Z,21.10
2023-05-09T16:24:58.970Z,21.10
2023-05-09T16:27:26.186Z,21.20
2023-05-09T16:29:53.150Z,21.30
2023-05-09T16:32:20.170Z,21.30
2023-05-09T16:34:47.521Z,21.40
2023-05-09T16:37:16.315Z,21.40
2023-05-09T16:39:43.315Z,21.30
2023-05-09T16:42:10.515Z,21.20
2023-05-09T16:44:37.740Z,21.10
2023-05-09T16:47:04.864Z,21.00
2023-05-09T16:49:31.950Z,21.00
2023-05-09T16:51:59.607Z,20.80
2023-05-09T16:54:26.671Z,20.70
2023-05-09T16:56:54.196Z,20.70
2023-05-09T16:59:21.964Z,20.70
2023-05-09T17:01:49.568Z,20.60
2023-05-09T17:04:17.214Z,20.50
2023-05-09T17:06:44.373Z,20.40
2023-05-09T17:09:11.530Z,20.40
2023-05-09T17:11:38.581Z,20.30
2023-05-09T17:14:05.725Z,20.20
2023-05-09T17:16:32.835Z,20.10
2023-05-09T17:19:00.228Z,20.10
2023-05-09T17:21:27.293Z,20.00
2023-05-09T17:23:55.045Z,19.90
2023-05-09T17:26:22.363Z,19.80
2023-05-09T17:28:49.902Z,19.80
2023-05-09T17:31:17.053Z,19.60
2023-05-09T17:33:44.269Z,19.50
2023-05-09T17:36:11.267Z,19.40
2023-05-09T17:38:38.486Z,19.30
2023-05-09T17:41:05.936Z,19.20
2023-05-09T17:43:32.998Z,19.10
2023-05-09T17:46:00.221Z,19.00
2023-05-09T17:48:27.362Z,18.90
2023-05-09T17:50:54.610Z,18.90
2023-05-09T17:53:21.893Z,18.80
2023-05-09T17:55:48.868Z,18.70
2023-05-09T17:58:17.941Z,18.70
2023-05-09T18:00:44.977Z,18.60
2023-05-09T18:03:12.142Z,18.50
2023-05-09T18:05:39.305Z,18.50
2023-05-09T18:08:06.654Z,18.40
2023-05-09T18:10:34.346Z,18.40
2023-05-09T18:13:01.490Z,18.30
2023-05-09T18:15:28.564Z,18.20
2023-05-09T18:17:57.783Z,18.20
2023-05-09T18:20:25.049Z,18.10
2023-05-09T18:22:53.862Z,18.00
2023-05-09T18:25:21.004Z,17.90
2023-05-09T18:27:48.696Z,17.90
2023-05-09T18:30:16.089Z,17.80
2023-05-09T18:32:43.184Z,17.80
2023-05-09T18:35:10.608Z,17.70
2023-05-09T18:37:37.925Z,17.70
2023-05-09T18:40:05.686Z,17.60
2023-05-09T18:42:32.645Z,17.60
2023-05-09T18:45:01.025Z,17.50
2023-05-09T18:47:28.344Z,17.50
2023-05-09T18:49:55.519Z,17.40
2023-05-09T18:52:22.903Z,17.30
2023-05-09T18:54:49.887Z,17.30
2023-05-09T18:57:16.946Z,17.20
2023-05-09T18:59:44.157Z,17.10
2023-05-09T19:02:11.184Z,17.10
2023-05-09T19:04:38.355Z,17.10
2023-05-09T19:07:05.712Z,17.10
2023-05-09T19:09:32.867Z,17.00
2023-05-09T19:12:03.263Z,17.00
2023-05-09T19:14:30.216Z,17.00
2023-05-09T19:16:57.284Z,17.00
2023-05-09T19:19:24.335Z,17.00
2023-05-09T19:21:51.497Z,17.00
2023-05-09T19:24:18.476Z,17.00
2023-05-09T19:26:45.556Z,17.00
2023-05-09T19:29:12.613Z,17.00
2023-05-09T19:31:39.705Z,16.90
2023-05-09T19:34:06.749Z,17.00
2023-05-09T19:36:35.335Z,16.90
2023-05-09T19:39:02.438Z,16.90
2023-05-09T19:41:29.452Z,16.90
2023-05-09T19:43:56.549Z,16.90
2023-05-09T19:46:23.830Z,16.90
2023-05-09T19:48:51.944Z,16.80
2023-05-09T19:51:19.014Z,16.70
2023-05-09T19:53:47.122Z,16.70
2023-05-09T19:56:14.236Z,16.60
2023-05-09T19:58:41.437Z,16.50
2023-05-09T20:01:08.434Z,16.40
2023-05-09T20:03:37.205Z,16.30
2023-05-09T20:06:04.599Z,16.20
2023-05-09T20:08:31.783Z,16.20
2023-05-09T20:11:00.205Z,16.20
2023-05-09T20:13:27.931Z,16.10
2023-05-09T20:15:55.357Z,16.10
2023-05-09T20:18:22.637Z,16.00
2023-05-09T20:20:49.743Z,15.80
2023-05-09T20:23:16.817Z,15.70
2023-05-09T20:25:43.863Z,15.70
2023-05-09T20:28:12.414Z,15.60
2023-05-09T20:30:39.475Z,15.50
2023-05-09T20:33:06.534Z,15.50
2023-05-09T20:35:33.684Z,15.50
2023-05-09T20:38:00.830Z,15.40
2023-05-09T20:40:28.444Z,15.40
2023-05-09T20:42:55.607Z,15.40
2023-05-09T20:45:22.734Z,15.30
2023-05-09T20:47:49.865Z,15.30
2023-05-09T20:50:18.421Z,15.30
2023-05-09T20:52:45.823Z,15.30
2023-05-09T20:55:13.037Z,15.20
2023-05-09T20:57:40.032Z,15.20
2023-05-09T21:00:07.822Z,15.20
2023-05-09T21:02:35.082Z,15.10
2023-05-09T21:05:02.237Z,15.20
2023-05-09T21:07:29.514Z,15.10
2023-05-09T21:09:57.298Z,15.10
2023-05-09T21:12:24.412Z,15.10
2023-05-09T21:14:56.752Z,15.10
2023-05-09T21:17:24.118Z,15.10
2023-05-09T21:19:52.032Z,15.10
2023-05-09T21:22:19.108Z,15.10
2023-05-09T21:24:46.153Z,15.00
2023-05-09T21:27:13.177Z,15.10
2023-05-09T21:29:41.327Z,15.00
2023-05-09T21:32:08.477Z,15.00
2023-05-09T21:34:36.627Z,15.00
2023-05-09T21:37:03.718Z,15.00
2023-05-09T21:39:32.548Z,14.90
2023-05-09T21:42:00.997Z,14.90
2023-05-09T21:44:28.004Z,14.90
2023-05-09T21:46:55.112Z,14.90
2023-05-09T21:49:22.312Z,14.90
2023-05-09T21:51:49.460Z,14.90
2023-05-09T21:54:16.859Z,14.80
2023-05-09T21:56:46.039Z,14.80
2023-05-09T21:59:13.123Z,14.80
2023-05-09T22:01:40.261Z,14.80
2023-05-09T22:04:09.827Z,14.80
2023-05-09T22:06:36.986Z,14.80
2023-05-09T22:09:05.025Z,14.70
2023-05-09T22:11:32.045Z,14.70
2023-05-09T22:13:59.164Z,14.80
2023-05-09T22:16:26.392Z,14.70
2023-05-09T22:18:53.878Z,14.70
2023-05-09T22:21:21.130Z,14.70
2023-05-09T22:23:48.253Z,14.60
2023-05-09T22:26:15.300Z,14.70
2023-05-09T22:28:42.469Z,14.60
2023-05-09T22:31:09.499Z,14.70
2023-05-09T22:33:36.680Z,14.70
2023-05-09T22:36:04.115Z,14.70
2023-05-09T22:38:31.127Z,14.60
2023-05-09T22:40:58.206Z,14.60
2023-05-09T22:43:28.781Z,14.50
2023-05-09T22:46:00.918Z,14.50
2023-05-09T22:48:28.660Z,14.50
2023-05-09T22:50:55.648Z,14.50
2023-05-09T22:53:22.648Z,14.50
2023-05-09T22:55:49.752Z,14.60
2023-05-09T22:58:17.457Z,14.50
2023-05-09T23:00:44.553Z,14.60
2023-05-09T23:03:11.678Z,14.50
2023-05-09T23:05:38.726Z,14.50
2023-05-09T23:08:05.904Z,14.50
2023-05-09T23:10:32.947Z,14.50
2023-05-09T23:13:00.085Z,14.40
2023-05-09T23:15:27.241Z,14.40
2023-05-09T23:17:54.467Z,14.40
2023-05-09T23:20:21.597Z,14.40
2023-05-09T23:22:48.656Z,14.30
2023-05-09T23:25:15.754Z,14.30
2023-05-09T23:27:44.823Z,14.30
2023-05-09T23:30:11.917Z,14.40
2023-05-09T23:32:39.105Z,14.30
2023-05-09T23:35:06.740Z,14.30
2023-05-09T23:37:33.779Z,14.30
2023-05-09T23:40:01.157Z,14.40
2023-05-09T23:42:28.385Z,14.40
2023-05-09T23:44:55.497Z,14.30
2023-05-09T23:47:22.478Z,14.30
2023-05-09T23:49:49.578Z,14.30
2023-05-09T23:52:16.782Z,14.20
2023-05-09T23:54:43.790Z,14.20
2023-05-09T23:57:10.857Z,14.20
2023-05-09T23:59:38.037Z,14.20
